createdAt,value
2018-02-09T00:00:58.680Z,59.00
2018-02-09T00:03:26.109Z,57.50
2018-02-09T00:05:53.557Z,58.15
2018-02-09T00:08:21.413Z,62.15
2018-02-09T00:10:48.845Z,57.90
2018-02-09T00:13:16.273Z,59.03
2018-02-09T00:15:43.735Z,55.72
2018-02-09T00:18:11.173Z,56.15
2018-02-09T00:20:38.600Z,55.72
2018-02-09T00:23:06.020Z,57.83
2018-02-09T00:25:33.472Z,55.40
2018-02-09T00:28:00.961Z,56.37
2018-02-09T00:30:28.384Z,55.20
2018-02-09T00:32:55.838Z,56.55
2018-02-09T00:35:23.296Z,55.22
2018-02-09T00:37:50.715Z,58.55
2018-02-09T00:40:18.161Z,57.53
2018-02-09T00:42:45.654Z,60.30
2018-02-09T00:45:13.071Z,56.75
2018-02-09T00:47:40.505Z,58.50
2018-02-09T00:50:07.928Z,55.95
2018-02-09T00:52:35.384Z,57.15
2018-02-09T00:55:02.804Z,57.80
2018-02-09T00:57:30.232Z,59.08
2018-02-09T00:59:57.696Z,58.10
2018-02-09T01:02:25.128Z,57.30
2018-02-09T01:04:52.609Z,60.15
2018-02-09T01:07:20.048Z,56.08
2018-02-09T01:09:47.452Z,59.55
2018-02-09T01:12:14.949Z,60.92
2018-02-09T01:14:42.373Z,59.28
2018-02-09T01:17:09.809Z,56.97
2018-02-09T01:19:37.240Z,54.72
2018-02-09T01:22:04.661Z,54.35
2018-02-09T01:24:32.112Z,56.92
2018-02-09T01:26:59.556Z,54.72
2018-02-09T01:29:26.981Z,54.88
2018-02-09T01:31:54.401Z,56.70
2018-02-09T01:34:21.836Z,55.63
2018-02-09T01:36:49.252Z,56.92
2018-02-09T01:39:16.687Z,53.45
2018-02-09T01:41:44.099Z,58.45
2018-02-09T01:44:11.676Z,57.72
2018-02-09T01:46:39.098Z,57.47
2018-02-09T01:49:06.556Z,59.28
2018-02-09T01:51:33.964Z,58.42
2018-02-09T01:54:01.417Z,62.28
2018-02-09T01:56:28.871Z,59.38
2018-02-09T01:58:56.279Z,59.08
2018-02-09T02:01:23.708Z,60.15
2018-02-09T02:03:51.120Z,58.13
2018-02-09T02:06:18.545Z,60.45
2018-02-09T02:08:45.980Z,60.20
2018-02-09T02:11:13.412Z,58.83
2018-02-09T02:13:40.833Z,56.95
2018-02-09T02:16:08.276Z,54.63
2018-02-09T02:18:35.772Z,54.30
2018-02-09T02:21:03.180Z,56.65
2018-02-09T02:23:30.603Z,57.28
2018-02-09T02:25:58.029Z,57.97
2018-02-09T02:28:25.476Z,56.72
2018-02-09T02:30:52.933Z,53.85
2018-02-09T02:33:20.344Z,52.03
2018-02-09T02:35:47.810Z,57.30
2018-02-09T02:38:15.237Z,55.20
2018-02-09T02:40:42.684Z,53.08
2018-02-09T02:43:10.124Z,55.28
2018-02-09T02:45:37.577Z,56.83
2018-02-09T02:48:05.049Z,55.72
2018-02-09T02:50:32.534Z,56.75
2018-02-09T02:52:59.958Z,52.83
2018-02-09T02:55:27.394Z,57.53
2018-02-09T02:57:54.803Z,53.35
2018-02-09T03:00:22.281Z,54.95
2018-02-09T03:02:49.713Z,54.45
2018-02-09T03:05:17.145Z,56.40
2018-02-09T03:07:44.625Z,55.12
2018-02-09T03:10:12.039Z,55.63
2018-02-09T03:12:39.483Z,56.83
2018-02-09T03:15:06.917Z,56.55
2018-02-09T03:17:34.385Z,55.42
2018-02-09T03:20:01.816Z,57.60
2018-02-09T03:22:29.228Z,53.72
2018-02-09T03:24:56.670Z,56.60
2018-02-09T03:27:24.121Z,56.20
2018-02-09T03:29:51.573Z,55.20
2018-02-09T03:32:18.990Z,54.33
2018-02-09T03:34:46.415Z,56.03
2018-02-09T03:37:13.871Z,56.30
2018-02-09T03:39:41.292Z,54.58
2018-02-09T03:42:08.746Z,56.17
2018-02-09T03:44:36.199Z,54.30
2018-02-09T03:47:03.633Z,53.80
2018-02-09T03:49:31.084Z,55.10
2018-02-09T03:51:58.514Z,54.40
2018-02-09T03:54:25.950Z,55.20
2018-02-09T03:56:53.397Z,52.80
2018-02-09T03:59:20.814Z,53.55
2018-02-09T04:01:48.242Z,54.70
2018-02-09T04:04:15.675Z,50.42
2018-02-09T04:06:43.087Z,53.25
2018-02-09T04:09:10.512Z,51.50
2018-02-09T04:11:37.933Z,56.28
2018-02-09T04:14:05.393Z,56.58
2018-02-09T04:16:32.825Z,54.33
2018-02-09T04:19:00.240Z,55.90
2018-02-09T04:21:27.658Z,56.28
2018-02-09T04:23:55.093Z,52.10
2018-02-09T04:26:22.502Z,51.65
2018-02-09T04:28:49.920Z,52.30
2018-02-09T04:31:17.367Z,54.25
2018-02-09T04:33:44.772Z,54.45
2018-02-09T04:36:12.199Z,55.12
2018-02-09T04:38:39.608Z,53.15
2018-02-09T04:41:07.049Z,54.00
2018-02-09T04:43:34.465Z,54.70
2018-02-09T04:46:01.900Z,54.85
2018-02-09T04:48:29.300Z,52.50
2018-02-09T04:50:56.726Z,53.70
2018-02-09T04:53:24.152Z,50.58
2018-02-09T04:55:51.565Z,53.50
2018-02-09T04:58:18.981Z,53.58
2018-02-09T05:00:46.436Z,54.88
2018-02-09T05:03:13.871Z,52.35
2018-02-09T05:05:41.296Z,54.45
2018-02-09T05:08:08.742Z,54.17
2018-02-09T05:10:36.233Z,51.78
2018-02-09T05:13:03.656Z,52.75
2018-02-09T05:15:31.086Z,52.10
2018-02-09T05:17:58.499Z,55.05
2018-02-09T05:20:25.925Z,51.03
2018-02-09T05:22:53.352Z,49.10
2018-02-09T05:25:20.770Z,55.75
2018-02-09T05:27:48.200Z,52.17
2018-02-09T05:30:15.613Z,52.35
2018-02-09T05:32:43.032Z,53.05
2018-02-09T05:35:10.457Z,53.22
2018-02-09T05:37:37.918Z,49.92
2018-02-09T05:40:05.337Z,56.92
2018-02-09T05:42:32.752Z,52.85
2018-02-09T05:45:00.160Z,50.97
2018-02-09T05:47:27.587Z,53.40
2018-02-09T05:49:55.001Z,52.30
2018-02-09T05:52:22.412Z,49.95
2018-02-09T05:54:49.828Z,52.38
2018-02-09T05:57:17.240Z,51.30
2018-02-09T05:59:44.661Z,53.15
2018-02-09T06:02:12.073Z,50.92
2018-02-09T06:04:39.561Z,52.38
2018-02-09T06:07:06.970Z,51.40
2018-02-09T06:09:34.574Z,52.95
2018-02-09T06:12:02.049Z,51.17
2018-02-09T06:14:29.476Z,51.00
2018-02-09T06:16:56.894Z,53.05
2018-02-09T06:19:24.313Z,49.85
2018-02-09T06:21:51.740Z,51.20
2018-02-09T06:24:19.173Z,49.15
2018-02-09T06:26:46.653Z,50.85
2018-02-09T06:29:14.069Z,50.20
2018-02-09T06:31:41.488Z,53.78
2018-02-09T06:34:08.910Z,52.85
2018-02-09T06:36:36.346Z,50.83
2018-02-09T06:39:03.760Z,52.60
2018-02-09T06:41:31.177Z,49.03
2018-02-09T06:43:58.650Z,50.42
2018-02-09T06:46:26.061Z,50.20
2018-02-09T06:48:53.531Z,48.45
2018-02-09T06:51:20.956Z,51.33
2018-02-09T06:53:48.397Z,51.80
2018-02-09T06:56:15.825Z,51.80
2018-02-09T06:58:43.261Z,51.88
2018-02-09T07:01:10.720Z,52.92
2018-02-09T07:03:38.161Z,51.92
2018-02-09T07:06:05.703Z,52.10
2018-02-09T07:08:33.181Z,54.83
2018-02-09T07:11:00.632Z,54.03
2018-02-09T07:13:28.048Z,52.47
2018-02-09T07:15:55.513Z,52.70
2018-02-09T07:18:23.834Z,54.97
2018-02-09T07:20:52.815Z,53.67
2018-02-09T07:23:20.232Z,52.53
2018-02-09T07:25:47.669Z,54.72
2018-02-09T07:28:15.100Z,55.90
2018-02-09T07:30:42.548Z,55.80
2018-02-09T07:33:09.964Z,57.03
2018-02-09T07:35:37.566Z,55.78
2018-02-09T07:38:05.251Z,54.67
2018-02-09T07:40:33.180Z,56.00
2018-02-09T07:43:01.058Z,58.70
2018-02-09T07:45:28.500Z,56.75
2018-02-09T07:47:55.981Z,59.38
2018-02-09T07:50:23.398Z,57.88
2018-02-09T07:52:50.844Z,58.40
2018-02-09T07:55:18.324Z,58.00
2018-02-09T07:57:45.776Z,57.45
2018-02-09T08:00:13.216Z,57.65
2018-02-09T08:02:40.680Z,56.03
2018-02-09T08:05:08.113Z,54.00
2018-02-09T08:07:35.968Z,54.10
2018-02-09T08:10:03.434Z,57.30
2018-02-09T08:12:30.872Z,53.15
2018-02-09T08:14:58.312Z,55.75
2018-02-09T08:17:25.808Z,55.65
2018-02-09T08:19:53.233Z,55.03
2018-02-09T08:22:20.718Z,57.45
2018-02-09T08:24:48.171Z,53.20
2018-02-09T08:27:15.594Z,53.35
2018-02-09T08:29:43.656Z,52.72
2018-02-09T08:32:11.072Z,52.60
2018-02-09T08:34:38.905Z,54.40
2018-02-09T08:37:06.324Z,53.47
2018-02-09T08:39:33.740Z,52.97
2018-02-09T08:42:01.164Z,53.87
2018-02-09T08:44:28.576Z,52.25
2018-02-09T08:46:56.000Z,54.95
2018-02-09T08:49:23.416Z,54.17
2018-02-09T08:51:50.990Z,52.40
2018-02-09T08:54:18.400Z,52.10
2018-02-09T08:56:45.810Z,51.53
2018-02-09T08:59:13.228Z,54.55
2018-02-09T09:01:40.661Z,54.83
2018-02-09T09:04:08.122Z,52.33
2018-02-09T09:06:35.516Z,54.65
2018-02-09T09:09:02.945Z,52.00
2018-02-09T09:11:30.372Z,56.75
2018-02-09T09:13:57.797Z,55.30
2018-02-09T09:16:25.235Z,56.30
2018-02-09T09:18:52.656Z,56.53
2018-02-09T09:21:20.085Z,55.65
2018-02-09T09:23:47.508Z,54.85
2018-02-09T09:26:14.933Z,56.05
2018-02-09T09:28:42.360Z,54.30
2018-02-09T09:31:09.789Z,53.50
2018-02-09T09:33:37.256Z,54.22
2018-02-09T09:36:04.664Z,55.10
2018-02-09T09:38:32.083Z,53.53
2018-02-09T09:40:59.506Z,55.90
2018-02-09T09:43:26.914Z,53.58
2018-02-09T09:45:54.332Z,54.05
2018-02-09T09:48:21.748Z,56.00
2018-02-09T09:50:49.169Z,54.50
2018-02-09T09:53:16.580Z,54.25
2018-02-09T09:55:44.048Z,55.85
2018-02-09T09:58:11.492Z,55.58
2018-02-09T10:00:38.912Z,53.55
2018-02-09T10:03:06.324Z,53.92
2018-02-09T10:05:33.736Z,54.72
2018-02-09T10:08:01.165Z,55.15
2018-02-09T10:10:28.609Z,53.58
2018-02-09T10:12:56.017Z,51.13
2018-02-09T10:15:23.437Z,52.20
2018-02-09T10:17:50.855Z,50.33
2018-02-09T10:20:18.271Z,51.42
2018-02-09T10:22:45.681Z,51.50
2018-02-09T10:25:13.097Z,50.95
2018-02-09T10:27:40.542Z,50.08
2018-02-09T10:30:07.948Z,51.63
2018-02-09T10:32:35.372Z,51.30
2018-02-09T10:35:02.798Z,54.53
2018-02-09T10:37:30.213Z,52.38
2018-02-09T10:39:57.632Z,51.30
2018-02-09T10:42:25.068Z,51.58
2018-02-09T10:44:52.496Z,51.10
2018-02-09T10:47:19.912Z,52.10
2018-02-09T10:49:47.330Z,50.40
2018-02-09T10:52:14.754Z,51.85
2018-02-09T10:54:42.218Z,52.55
2018-02-09T10:57:09.630Z,53.13
2018-02-09T10:59:37.042Z,52.03
2018-02-09T11:02:04.468Z,52.42
2018-02-09T11:04:31.884Z,52.38
2018-02-09T11:06:59.306Z,49.85
2018-02-09T11:09:31.548Z,50.25
2018-02-09T11:15:03.899Z,51.47
2018-02-09T11:17:31.277Z,51.63
2018-02-09T11:19:58.700Z,49.55
2018-02-09T11:22:26.121Z,49.45
2018-02-09T11:24:52.820Z,50.15
2018-02-09T11:27:20.277Z,49.33
2018-02-09T11:29:47.700Z,48.50
2018-02-09T11:32:15.135Z,49.25
2018-02-09T11:34:42.560Z,48.22
2018-02-09T11:37:09.974Z,46.78
2018-02-09T11:39:37.410Z,45.30
2018-02-09T11:42:04.828Z,47.67
2018-02-09T11:44:32.249Z,47.62
2018-02-09T11:46:59.664Z,47.55
2018-02-09T11:49:27.084Z,46.95
2018-02-09T11:51:54.499Z,44.35
2018-02-09T11:54:21.939Z,47.83
2018-02-09T11:56:49.352Z,46.28
2018-02-09T11:59:16.772Z,44.42
2018-02-09T12:01:44.192Z,42.22
2018-02-09T12:04:11.606Z,43.60
2018-02-09T12:06:39.843Z,42.45
2018-02-09T12:09:07.258Z,42.35
2018-02-09T12:11:34.673Z,45.00
2018-02-09T12:14:02.089Z,41.67
2018-02-09T12:16:29.557Z,42.60
2018-02-09T12:18:56.973Z,44.08
2018-02-09T12:21:24.392Z,43.72
2018-02-09T12:23:51.805Z,43.25
2018-02-09T12:26:19.244Z,44.45
2018-02-09T12:28:46.936Z,42.53
2018-02-09T12:31:14.349Z,44.90
2018-02-09T12:33:41.773Z,44.13
2018-02-09T12:36:09.195Z,43.42
2018-02-09T12:38:36.626Z,42.80
2018-02-09T12:41:04.076Z,42.40
2018-02-09T12:43:31.489Z,40.97
2018-02-09T12:45:58.917Z,43.00
2018-02-09T12:48:26.390Z,41.80
2018-02-09T12:50:53.808Z,39.25
2018-02-09T12:53:21.220Z,40.65
2018-02-09T12:55:48.688Z,39.45
2018-02-09T12:58:16.231Z,40.47
2018-02-09T13:00:43.675Z,38.67
2018-02-09T13:03:11.146Z,40.55
2018-02-09T13:05:38.553Z,38.42
2018-02-09T13:08:06.015Z,37.97
2018-02-09T13:10:33.501Z,40.88
2018-02-09T13:13:07.691Z,38.28
2018-02-09T13:15:35.129Z,39.63
2018-02-09T13:18:02.580Z,38.65
2018-02-09T13:20:29.994Z,36.92
2018-02-09T13:26:01.121Z,36.72
2018-02-09T13:28:40.227Z,38.30
2018-02-09T13:31:07.665Z,37.33
2018-02-09T13:33:35.124Z,38.78
2018-02-09T13:36:02.585Z,34.88
2018-02-09T13:38:30.023Z,36.10
2018-02-09T13:40:57.472Z,33.47
2018-02-09T13:43:25.909Z,34.47
2018-02-09T13:45:53.342Z,34.50
2018-02-09T13:48:20.787Z,33.72
2018-02-09T13:50:48.276Z,34.00
2018-02-09T13:53:15.713Z,35.50
2018-02-09T13:55:43.156Z,32.58
2018-02-09T13:58:10.580Z,35.15
2018-02-09T14:00:38.016Z,32.90
2018-02-09T14:03:05.462Z,35.08
2018-02-09T14:05:33.000Z,34.15
2018-02-09T14:08:00.495Z,35.33
2018-02-09T14:10:27.900Z,36.00
2018-02-09T14:12:55.389Z,36.13
2018-02-09T14:15:22.812Z,35.78
2018-02-09T14:17:50.260Z,34.70
2018-02-09T14:20:17.668Z,34.85
2018-02-09T14:22:45.104Z,36.50
2018-02-09T14:25:12.527Z,35.20
2018-02-09T14:27:39.956Z,34.95
2018-02-09T14:30:07.405Z,35.33
2018-02-09T14:32:34.834Z,34.35
2018-02-09T14:35:02.288Z,35.97
2018-02-09T14:37:29.700Z,36.28
2018-02-09T14:39:57.129Z,34.47
2018-02-09T14:42:24.599Z,34.80
2018-02-09T14:44:52.048Z,32.38
2018-02-09T14:47:19.485Z,33.35
2018-02-09T14:49:46.893Z,31.23
2018-02-09T14:52:14.484Z,32.95
2018-02-09T14:54:46.105Z,33.28
2018-02-09T14:57:13.556Z,28.65
2018-02-09T14:59:41.012Z,29.33
2018-02-09T15:02:08.448Z,27.83
2018-02-09T15:04:35.872Z,28.40
2018-02-09T15:07:03.752Z,28.87
2018-02-09T15:09:31.168Z,27.08
2018-02-09T15:11:58.592Z,26.40
2018-02-09T15:14:26.033Z,24.52
2018-02-09T15:16:54.889Z,24.67
2018-02-09T15:19:22.624Z,24.58
2018-02-09T15:21:50.165Z,26.25
2018-02-09T15:24:17.684Z,25.42
2018-02-09T15:26:45.101Z,24.65
2018-02-09T15:29:12.512Z,23.20
2018-02-09T15:31:39.932Z,25.20
2018-02-09T15:34:07.352Z,25.77
2018-02-09T15:36:34.777Z,24.08
2018-02-09T15:39:02.192Z,25.50
2018-02-09T15:41:29.620Z,24.67
2018-02-09T15:43:57.036Z,26.70
2018-02-09T15:46:24.556Z,24.70
2018-02-09T15:48:52.022Z,24.30
2018-02-09T15:51:19.424Z,24.70
2018-02-09T15:53:46.853Z,24.58
2018-02-09T15:56:14.265Z,24.55
2018-02-09T15:58:41.681Z,25.83
2018-02-09T16:01:09.103Z,24.95
2018-02-09T16:03:36.573Z,25.23
2018-02-09T16:06:03.975Z,26.27
2018-02-09T16:08:31.404Z,24.90
2018-02-09T16:10:58.826Z,24.10
2018-02-09T16:13:26.243Z,24.45
2018-02-09T16:15:53.656Z,23.38
2018-02-09T16:18:21.082Z,24.37
2018-02-09T16:20:48.512Z,23.48
2018-02-09T16:23:15.917Z,23.15
2018-02-09T16:25:43.357Z,23.80
2018-02-09T16:28:10.792Z,21.83
2018-02-09T16:30:38.212Z,23.35
2018-02-09T16:33:05.632Z,21.90
2018-02-09T16:35:33.712Z,22.70
2018-02-09T16:38:01.367Z,22.80
2018-02-09T16:40:28.935Z,20.67
2018-02-09T16:42:58.548Z,20.52
2018-02-09T16:45:25.956Z,21.12
2018-02-09T16:47:53.463Z,20.25
2018-02-09T16:50:20.932Z,21.60
2018-02-09T16:52:48.350Z,22.10
2018-02-09T16:55:16.453Z,20.95
2018-02-09T16:57:48.979Z,21.73
2018-02-09T17:00:16.390Z,20.60
2018-02-09T17:02:44.988Z,23.15
2018-02-09T17:05:12.405Z,22.45
2018-02-09T17:07:44.238Z,22.25
2018-02-09T17:10:12.716Z,21.62
2018-02-09T17:12:40.147Z,21.55
2018-02-09T17:15:07.688Z,20.73
2018-02-09T17:17:35.162Z,22.33
2018-02-09T17:20:03.403Z,22.23
2018-02-09T17:22:30.828Z,23.00
2018-02-09T17:24:58.455Z,22.83
2018-02-09T17:27:25.884Z,23.80
2018-02-09T17:29:53.300Z,22.20
2018-02-09T17:32:20.781Z,21.95
2018-02-09T17:34:52.206Z,21.98
2018-02-09T17:37:19.612Z,21.65
2018-02-09T17:39:53.157Z,22.15
2018-02-09T17:42:20.589Z,23.58
2018-02-09T17:44:48.040Z,26.25
2018-02-09T17:47:15.457Z,26.95
2018-02-09T17:49:42.936Z,26.02
2018-02-09T17:52:10.345Z,27.13
2018-02-09T17:54:37.773Z,25.15
2018-02-09T17:57:05.836Z,24.17
2018-02-09T17:59:33.253Z,25.35
2018-02-09T18:02:00.725Z,25.50
2018-02-09T18:04:34.044Z,23.30
2018-02-09T18:07:01.496Z,25.30
2018-02-09T18:09:28.908Z,24.27
2018-02-09T18:11:56.364Z,25.23
2018-02-09T18:14:23.809Z,23.25
2018-02-09T18:16:51.287Z,25.52
2018-02-09T18:19:18.822Z,24.80
2018-02-09T18:21:46.205Z,24.30
2018-02-09T18:24:13.637Z,25.35
2018-02-09T18:26:41.089Z,24.33
2018-02-09T18:29:08.514Z,23.40
2018-02-09T18:31:35.949Z,24.77
2018-02-09T18:34:03.405Z,25.40
2018-02-09T18:36:30.848Z,24.25
2018-02-09T18:38:58.293Z,24.08
2018-02-09T18:41:25.725Z,26.20
2018-02-09T18:43:53.197Z,25.08
2018-02-09T18:46:20.614Z,22.00
2018-02-09T18:48:48.049Z,22.60
2018-02-09T18:51:15.499Z,24.42
2018-02-09T18:53:42.920Z,23.15
2018-02-09T18:56:10.369Z,23.42
2018-02-09T18:58:37.772Z,24.63
2018-02-09T19:01:09.198Z,22.27
2018-02-09T19:03:36.629Z,22.95
2018-02-09T19:06:04.060Z,23.58
2018-02-09T19:08:31.488Z,25.12
2018-02-09T19:10:58.946Z,23.30
2018-02-09T19:13:26.365Z,22.30
2018-02-09T19:15:53.793Z,23.60
2018-02-09T19:18:21.256Z,24.75
2018-02-09T19:20:48.668Z,23.70
2018-02-09T19:23:16.133Z,22.85
2018-02-09T19:25:43.569Z,23.87
2018-02-09T19:28:11.019Z,24.15
2018-02-09T19:30:38.461Z,21.30
2018-02-09T19:33:05.893Z,22.58
2018-02-09T19:35:33.328Z,21.08
2018-02-09T19:38:00.744Z,23.38
2018-02-09T19:40:28.208Z,22.55
2018-02-09T19:42:55.633Z,22.75
2018-02-09T19:45:23.065Z,22.95
2018-02-09T19:47:50.477Z,22.30
2018-02-09T19:50:17.892Z,22.52
2018-02-09T19:52:45.337Z,21.77
2018-02-09T19:55:12.716Z,22.37
2018-02-09T19:57:40.156Z,21.55
2018-02-09T20:00:07.559Z,22.20
2018-02-09T20:02:34.976Z,20.83
2018-02-09T20:05:02.397Z,21.10
2018-02-09T20:07:29.836Z,21.65
2018-02-09T20:09:57.253Z,23.33
2018-02-09T20:12:24.688Z,23.00
2018-02-09T20:14:52.108Z,24.50
2018-02-09T20:17:19.524Z,23.90
2018-02-09T20:19:46.965Z,23.75
2018-02-09T20:22:14.423Z,23.40
2018-02-09T20:24:41.855Z,23.92
2018-02-09T20:27:09.282Z,24.98
2018-02-09T20:29:36.709Z,25.12
2018-02-09T20:32:04.181Z,24.92
2018-02-09T20:34:31.600Z,25.75
2018-02-09T20:36:59.080Z,24.77
2018-02-09T20:39:26.519Z,27.25
2018-02-09T20:41:53.933Z,27.00
2018-02-09T20:44:21.371Z,27.73
2018-02-09T20:46:48.825Z,27.75
2018-02-09T20:49:16.281Z,25.05
2018-02-09T20:51:43.717Z,26.65
2018-02-09T20:54:11.133Z,25.15
2018-02-09T20:56:38.558Z,27.95
2018-02-09T20:59:05.976Z,28.25
2018-02-09T21:01:33.445Z,28.55
2018-02-09T21:04:00.877Z,28.90
2018-02-09T21:06:28.296Z,26.98
2018-02-09T21:08:55.705Z,28.00
2018-02-09T21:11:23.145Z,25.80
2018-02-09T21:13:50.564Z,26.95
2018-02-09T21:16:17.997Z,27.25
2018-02-09T21:18:45.423Z,25.90
2018-02-09T21:21:12.841Z,26.70
2018-02-09T21:23:40.328Z,26.12
2018-02-09T21:26:07.775Z,26.12
2018-02-09T21:28:35.195Z,28.00
2018-02-09T21:31:02.613Z,25.77
2018-02-09T21:33:30.075Z,25.37
2018-02-09T21:35:57.516Z,27.42
2018-02-09T21:38:24.936Z,26.30
2018-02-09T21:40:52.348Z,24.98
2018-02-09T21:43:19.784Z,24.85
2018-02-09T21:45:47.200Z,26.02
2018-02-09T21:48:14.664Z,25.27
2018-02-09T21:50:42.113Z,26.33
2018-02-09T21:53:09.557Z,26.55
2018-02-09T21:55:36.981Z,25.80
2018-02-09T21:58:04.440Z,25.48
2018-02-09T22:00:31.897Z,23.55
2018-02-09T22:03:02.365Z,23.90
2018-02-09T22:05:29.792Z,26.20
2018-02-09T22:07:57.289Z,25.83
2018-02-09T22:10:24.973Z,24.67
2018-02-09T22:12:52.424Z,24.90
2018-02-09T22:15:19.873Z,25.45
2018-02-09T22:17:47.297Z,25.40
2018-02-09T22:20:14.737Z,26.27
2018-02-09T22:22:42.164Z,26.05
2018-02-09T22:25:09.640Z,24.98
2018-02-09T22:27:37.134Z,24.10
2018-02-09T22:30:04.537Z,25.58
2018-02-09T22:32:31.965Z,24.42
2018-02-09T22:34:59.385Z,24.70
2018-02-09T22:37:26.824Z,26.67
2018-02-09T22:39:54.243Z,25.33
2018-02-09T22:42:21.704Z,25.02
2018-02-09T22:44:49.121Z,26.65
2018-02-09T22:47:16.586Z,25.40
2018-02-09T22:49:44.040Z,26.48
2018-02-09T22:52:11.452Z,26.52
2018-02-09T22:54:39.486Z,27.55
2018-02-09T22:57:06.916Z,25.55
2018-02-09T22:59:34.344Z,25.80
2018-02-09T23:02:01.793Z,24.95
2018-02-09T23:04:29.204Z,26.90
2018-02-09T23:06:56.710Z,24.83
2018-02-09T23:09:24.096Z,25.90
2018-02-09T23:11:51.552Z,24.60
2018-02-09T23:14:19.016Z,25.80
2018-02-09T23:16:48.021Z,26.83
2018-02-09T23:19:16.352Z,26.02
2018-02-09T23:21:43.868Z,25.58
2018-02-09T23:24:11.317Z,25.10
2018-02-09T23:26:38.734Z,25.12
2018-02-09T23:29:06.189Z,23.52
2018-02-09T23:34:49.577Z,26.70
2018-02-09T23:37:17.015Z,27.37
2018-02-09T23:39:44.448Z,26.20
2018-02-09T23:42:11.856Z,24.83
2018-02-09T23:44:39.337Z,24.65
2018-02-09T23:47:06.773Z,25.30
2018-02-09T23:49:34.197Z,25.70
2018-02-09T23:52:01.673Z,27.00
2018-02-09T23:54:29.110Z,26.37
2018-02-09T23:56:56.534Z,24.50
2018-02-09T23:59:23.948Z,27.60
